sensor_id;sensor_type;location;lat;lon;timestamp;P1;durP1;ratioP1;P2;durP2;ratioP2
21213;SDS011;10764;50.850;2.904;2024-02-04T00:00:29;1233.75;;;999.90;;
21213;SDS011;10764;50.850;2.904;2024-02-04T00:02:57;1236.30;;;999.90;;
21213;SDS011;10764;50.850;2.904;2024-02-04T00:05:24;1236.57;;;999.90;;
21213;SDS011;10764;50.850;2.904;2024-02-04T00:07:51;1233.75;;;999.90;;
21213;SDS011;10764;50.850;2.904;2024-02-04T00:10:19;1225.07;;;999.90;;
21213;SDS011;10764;50.850;2.904;2024-02-04T00:12:46;1241.50;;;999.90;;
21213;SDS011;10764;50.850;2.904;2024-02-04T00:15:14;1236.32;;;999.90;;
21213;SDS011;10764;50.850;2.904;2024-02-04T00:17:41;1241.18;;;999.90;;
21213;SDS011;10764;50.850;2.904;2024-02-04T00:20:08;1241.63;;;999.90;;
21213;SDS011;10764;50.850;2.904;2024-02-04T00:22:36;1243.45;;;999.90;;
21213;SDS011;10764;50.850;2.904;2024-02-04T00:25:03;1241.83;;;999.90;;
21213;SDS011;10764;50.850;2.904;2024-02-04T00:27:34;1246.93;;;999.90;;
21213;SDS011;10764;50.850;2.904;2024-02-04T00:30:01;1241.57;;;999.90;;
21213;SDS011;10764;50.850;2.904;2024-02-04T00:32:29;1238.22;;;999.90;;
21213;SDS011;10764;50.850;2.904;2024-02-04T00:34:56;1243.57;;;999.90;;
21213;SDS011;10764;50.850;2.904;2024-02-04T00:37:23;1246.70;;;999.90;;
21213;SDS011;10764;50.850;2.904;2024-02-04T00:39:51;1253.05;;;999.90;;
21213;SDS011;10764;50.850;2.904;2024-02-04T00:42:18;1255.07;;;999.90;;
21213;SDS011;10764;50.850;2.904;2024-02-04T00:44:45;1249.60;;;999.90;;
21213;SDS011;10764;50.850;2.904;2024-02-04T00:47:13;1259.28;;;999.90;;
21213;SDS011;10764;50.850;2.904;2024-02-04T00:49:40;1246.00;;;999.90;;
21213;SDS011;10764;50.850;2.904;2024-02-04T00:52:07;1279.72;;;999.90;;
21213;SDS011;10764;50.850;2.904;2024-02-04T00:54:34;1277.67;;;999.90;;
21213;SDS011;10764;50.850;2.904;2024-02-04T00:57:02;1256.55;;;999.90;;
21213;SDS011;10764;50.850;2.904;2024-02-04T00:59:29;1259.78;;;999.90;;
21213;SDS011;10764;50.850;2.904;2024-02-04T01:01:56;1244.45;;;999.90;;
21213;SDS011;10764;50.850;2.904;2024-02-04T01:04:25;1267.25;;;999.90;;
21213;SDS011;10764;50.850;2.904;2024-02-04T01:06:52;1244.10;;;999.90;;
21213;SDS011;10764;50.850;2.904;2024-02-04T01:09:27;1239.90;;;999.90;;
21213;SDS011;10764;50.850;2.904;2024-02-04T01:11:56;1235.53;;;999.90;;
21213;SDS011;10764;50.850;2.904;2024-02-04T01:14:23;1235.70;;;999.90;;
21213;SDS011;10764;50.850;2.904;2024-02-04T01:16:50;1233.97;;;999.90;;
21213;SDS011;10764;50.850;2.904;2024-02-04T01:19:18;1233.03;;;999.90;;
21213;SDS011;10764;50.850;2.904;2024-02-04T01:21:45;1236.38;;;999.90;;
21213;SDS011;10764;50.850;2.904;2024-02-04T01:24:12;1224.18;;;999.90;;
21213;SDS011;10764;50.850;2.904;2024-02-04T01:26:39;1231.55;;;999.90;;
21213;SDS011;10764;50.850;2.904;2024-02-04T01:29:07;1237.77;;;999.90;;
21213;SDS011;10764;50.850;2.904;2024-02-04T01:31:34;1231.97;;;999.90;;
21213;SDS011;10764;50.850;2.904;2024-02-04T01:34:02;1237.13;;;999.90;;
21213;SDS011;10764;50.850;2.904;2024-02-04T01:36:29;1242.00;;;999.90;;
21213;SDS011;10764;50.850;2.904;2024-02-04T01:38:57;1237.33;;;999.90;;
21213;SDS011;10764;50.850;2.904;2024-02-04T01:41:24;1237.45;;;999.90;;
21213;SDS011;10764;50.850;2.904;2024-02-04T01:43:54;1239.55;;;999.90;;
21213;SDS011;10764;50.850;2.904;2024-02-04T01:46:22;1242.45;;;999.90;;
21213;SDS011;10764;50.850;2.904;2024-02-04T01:48:49;1234.50;;;999.90;;
21213;SDS011;10764;50.850;2.904;2024-02-04T01:51:17;1251.22;;;999.90;;
21213;SDS011;10764;50.850;2.904;2024-02-04T01:53:45;1243.47;;;999.90;;
21213;SDS011;10764;50.850;2.904;2024-02-04T01:56:13;1319.80;;;999.90;;
21213;SDS011;10764;50.850;2.904;2024-02-04T01:58:42;1204.18;;;999.90;;
21213;SDS011;10764;50.850;2.904;2024-02-04T02:01:10;1216.53;;;999.90;;
21213;SDS011;10764;50.850;2.904;2024-02-04T02:03:38;1200.82;;;999.90;;
21213;SDS011;10764;50.850;2.904;2024-02-04T02:06:06;1204.60;;;999.90;;
21213;SDS011;10764;50.850;2.904;2024-02-04T02:08:33;1211.57;;;999.90;;
21213;SDS011;10764;50.850;2.904;2024-02-04T02:11:11;1212.22;;;999.90;;
21213;SDS011;10764;50.850;2.904;2024-02-04T02:13:44;1206.75;;;999.90;;
21213;SDS011;10764;50.850;2.904;2024-02-04T02:16:15;1208.32;;;999.90;;
21213;SDS011;10764;50.850;2.904;2024-02-04T02:18:49;1210.78;;;999.90;;
21213;SDS011;10764;50.850;2.904;2024-02-04T02:26:50;1252.93;;;999.90;;
21213;SDS011;10764;50.850;2.904;2024-02-04T02:29:18;1214.60;;;999.90;;
21213;SDS011;10764;50.850;2.904;2024-02-04T02:31:46;1203.83;;;999.90;;
21213;SDS011;10764;50.850;2.904;2024-02-04T02:34:15;1212.60;;;999.90;;
21213;SDS011;10764;50.850;2.904;2024-02-04T02:37:04;1218.88;;;999.90;;
21213;SDS011;10764;50.850;2.904;2024-02-04T02:39:38;1215.28;;;999.90;;
21213;SDS011;10764;50.850;2.904;2024-02-04T02:42:12;1214.07;;;999.90;;
21213;SDS011;10764;50.850;2.904;2024-02-04T02:44:41;1206.00;;;999.90;;
21213;SDS011;10764;50.850;2.904;2024-02-04T02:47:10;1202.13;;;999.90;;
21213;SDS011;10764;50.850;2.904;2024-02-04T02:49:38;1203.03;;;999.90;;
21213;SDS011;10764;50.850;2.904;2024-02-04T02:52:05;1202.97;;;999.90;;
21213;SDS011;10764;50.850;2.904;2024-02-04T02:54:32;1203.05;;;999.90;;
21213;SDS011;10764;50.850;2.904;2024-02-04T02:57:00;1204.57;;;999.90;;
21213;SDS011;10764;50.850;2.904;2024-02-04T02:59:27;1198.70;;;999.90;;
21213;SDS011;10764;50.850;2.904;2024-02-04T03:01:54;1201.30;;;999.90;;
21213;SDS011;10764;50.850;2.904;2024-02-04T03:04:22;1201.07;;;999.90;;
21213;SDS011;10764;50.850;2.904;2024-02-04T03:06:49;1203.68;;;999.90;;
21213;SDS011;10764;50.850;2.904;2024-02-04T03:09:16;1200.73;;;999.90;;
21213;SDS011;10764;50.850;2.904;2024-02-04T03:11:44;1204.57;;;999.90;;
21213;SDS011;10764;50.850;2.904;2024-02-04T03:14:14;1203.35;;;999.90;;
21213;SDS011;10764;50.850;2.904;2024-02-04T03:16:45;1200.15;;;999.90;;
21213;SDS011;10764;50.850;2.904;2024-02-04T03:19:12;1201.00;;;999.90;;
21213;SDS011;10764;50.850;2.904;2024-02-04T03:21:40;1199.55;;;999.90;;
21213;SDS011;10764;50.850;2.904;2024-02-04T03:24:07;1202.20;;;999.90;;
21213;SDS011;10764;50.850;2.904;2024-02-04T03:26:35;1202.28;;;999.90;;
21213;SDS011;10764;50.850;2.904;2024-02-04T03:29:02;1202.68;;;999.90;;
21213;SDS011;10764;50.850;2.904;2024-02-04T03:31:31;1203.05;;;999.90;;
21213;SDS011;10764;50.850;2.904;2024-02-04T03:33:59;1206.78;;;999.90;;
21213;SDS011;10764;50.850;2.904;2024-02-04T03:36:27;1203.68;;;999.90;;
21213;SDS011;10764;50.850;2.904;2024-02-04T03:38:55;1202.03;;;999.90;;
21213;SDS011;10764;50.850;2.904;2024-02-04T03:41:22;1200.20;;;999.90;;
21213;SDS011;10764;50.850;2.904;2024-02-04T03:43:50;1201.97;;;999.90;;
21213;SDS011;10764;50.850;2.904;2024-02-04T03:46:18;1200.72;;;999.90;;
21213;SDS011;10764;50.850;2.904;2024-02-04T03:48:45;1206.88;;;999.90;;
21213;SDS011;10764;50.850;2.904;2024-02-04T03:51:17;1201.03;;;999.90;;
21213;SDS011;10764;50.850;2.904;2024-02-04T03:53:47;1201.25;;;999.90;;
21213;SDS011;10764;50.850;2.904;2024-02-04T03:56:14;1199.93;;;999.90;;
21213;SDS011;10764;50.850;2.904;2024-02-04T03:58:41;1202.05;;;999.90;;
21213;SDS011;10764;50.850;2.904;2024-02-04T04:01:10;1200.95;;;999.90;;
21213;SDS011;10764;50.850;2.904;2024-02-04T04:03:39;1198.47;;;999.90;;
21213;SDS011;10764;50.850;2.904;2024-02-04T04:06:07;1197.10;;;999.90;;
21213;SDS011;10764;50.850;2.904;2024-02-04T04:08:35;1200.93;;;999.90;;
21213;SDS011;10764;50.850;2.904;2024-02-04T04:11:03;1199.75;;;999.90;;
21213;SDS011;10764;50.850;2.904;2024-02-04T04:13:31;1200.18;;;999.90;;
21213;SDS011;10764;50.850;2.904;2024-02-04T04:16:02;1200.13;;;999.90;;
21213;SDS011;10764;50.850;2.904;2024-02-04T04:18:29;1198.97;;;999.90;;
21213;SDS011;10764;50.850;2.904;2024-02-04T04:20:57;1199.78;;;999.90;;
21213;SDS011;10764;50.850;2.904;2024-02-04T04:23:24;1198.63;;;999.90;;
21213;SDS011;10764;50.850;2.904;2024-02-04T04:25:51;1198.10;;;999.90;;
21213;SDS011;10764;50.850;2.904;2024-02-04T04:28:19;1199.50;;;999.90;;
21213;SDS011;10764;50.850;2.904;2024-02-04T04:30:46;1198.88;;;999.90;;
21213;SDS011;10764;50.850;2.904;2024-02-04T04:33:13;1198.15;;;999.90;;
21213;SDS011;10764;50.850;2.904;2024-02-04T04:35:41;1201.88;;;999.90;;
21213;SDS011;10764;50.850;2.904;2024-02-04T04:38:08;1202.45;;;999.90;;
21213;SDS011;10764;50.850;2.904;2024-02-04T04:40:35;1199.28;;;999.90;;
21213;SDS011;10764;50.850;2.904;2024-02-04T04:43:03;1201.35;;;999.90;;
21213;SDS011;10764;50.850;2.904;2024-02-04T04:45:30;1204.53;;;999.90;;
21213;SDS011;10764;50.850;2.904;2024-02-04T04:47:57;1199.15;;;999.90;;
21213;SDS011;10764;50.850;2.904;2024-02-04T04:50:25;1199.90;;;999.90;;
21213;SDS011;10764;50.850;2.904;2024-02-04T04:52:52;1196.60;;;999.90;;
21213;SDS011;10764;50.850;2.904;2024-02-04T04:55:20;1199.93;;;999.90;;
21213;SDS011;10764;50.850;2.904;2024-02-04T04:57:47;1197.65;;;999.90;;
21213;SDS011;10764;50.850;2.904;2024-02-04T05:00:17;1200.95;;;999.90;;
21213;SDS011;10764;50.850;2.904;2024-02-04T05:02:45;1195.00;;;999.90;;
21213;SDS011;10764;50.850;2.904;2024-02-04T05:05:14;1196.90;;;999.90;;
21213;SDS011;10764;50.850;2.904;2024-02-04T05:07:41;1194.32;;;999.90;;
21213;SDS011;10764;50.850;2.904;2024-02-04T05:10:09;1192.38;;;999.90;;
21213;SDS011;10764;50.850;2.904;2024-02-04T05:12:36;1197.60;;;999.90;;
21213;SDS011;10764;50.850;2.904;2024-02-04T05:15:04;1197.68;;;999.90;;
21213;SDS011;10764;50.850;2.904;2024-02-04T05:17:31;1200.33;;;999.90;;
21213;SDS011;10764;50.850;2.904;2024-02-04T05:20:00;1197.00;;;999.90;;
21213;SDS011;10764;50.850;2.904;2024-02-04T05:22:29;1196.53;;;999.90;;
21213;SDS011;10764;50.850;2.904;2024-02-04T05:24:56;1197.68;;;999.90;;
21213;SDS011;10764;50.850;2.904;2024-02-04T05:27:24;1197.07;;;999.90;;
21213;SDS011;10764;50.850;2.904;2024-02-04T05:29:52;1200.78;;;999.90;;
21213;SDS011;10764;50.850;2.904;2024-02-04T05:32:19;1195.50;;;999.90;;
21213;SDS011;10764;50.850;2.904;2024-02-04T05:34:47;1196.90;;;999.90;;
21213;SDS011;10764;50.850;2.904;2024-02-04T05:37:14;1195.10;;;999.90;;
21213;SDS011;10764;50.850;2.904;2024-02-04T05:39:41;1196.43;;;999.90;;
21213;SDS011;10764;50.850;2.904;2024-02-04T05:42:09;1206.63;;;999.90;;
21213;SDS011;10764;50.850;2.904;2024-02-04T05:44:36;1208.70;;;999.90;;
21213;SDS011;10764;50.850;2.904;2024-02-04T05:47:03;1208.78;;;999.90;;
21213;SDS011;10764;50.850;2.904;2024-02-04T05:49:31;1207.00;;;999.90;;
21213;SDS011;10764;50.850;2.904;2024-02-04T05:51:58;1210.72;;;999.90;;
21213;SDS011;10764;50.850;2.904;2024-02-04T05:54:26;1210.82;;;999.90;;
21213;SDS011;10764;50.850;2.904;2024-02-04T05:56:53;1213.00;;;999.90;;
21213;SDS011;10764;50.850;2.904;2024-02-04T05:59:20;1213.57;;;999.90;;
21213;SDS011;10764;50.850;2.904;2024-02-04T06:01:47;1215.53;;;999.90;;
21213;SDS011;10764;50.850;2.904;2024-02-04T06:04:15;1218.82;;;999.90;;
21213;SDS011;10764;50.850;2.904;2024-02-04T06:06:42;1224.25;;;999.90;;
21213;SDS011;10764;50.850;2.904;2024-02-04T06:09:09;1224.50;;;999.90;;
21213;SDS011;10764;50.850;2.904;2024-02-04T06:11:37;1226.32;;;999.90;;
21213;SDS011;10764;50.850;2.904;2024-02-04T06:14:04;1224.90;;;999.90;;
21213;SDS011;10764;50.850;2.904;2024-02-04T06:16:31;1225.47;;;999.90;;
21213;SDS011;10764;50.850;2.904;2024-02-04T06:19:00;1226.72;;;999.90;;
21213;SDS011;10764;50.850;2.904;2024-02-04T06:21:28;1225.80;;;999.90;;
21213;SDS011;10764;50.850;2.904;2024-02-04T06:23:55;1225.53;;;999.90;;
21213;SDS011;10764;50.850;2.904;2024-02-04T06:26:22;1228.73;;;999.90;;
21213;SDS011;10764;50.850;2.904;2024-02-04T06:28:49;1230.88;;;999.90;;
21213;SDS011;10764;50.850;2.904;2024-02-04T06:31:17;1230.17;;;999.90;;
21213;SDS011;10764;50.850;2.904;2024-02-04T06:33:45;1232.57;;;999.90;;
21213;SDS011;10764;50.850;2.904;2024-02-04T06:36:12;1231.13;;;999.90;;
21213;SDS011;10764;50.850;2.904;2024-02-04T06:38:40;1229.55;;;999.90;;
21213;SDS011;10764;50.850;2.904;2024-02-04T06:41:07;1230.25;;;999.90;;
21213;SDS011;10764;50.850;2.904;2024-02-04T06:43:36;1230.63;;;999.90;;
21213;SDS011;10764;50.850;2.904;2024-02-04T06:46:04;1229.57;;;999.90;;
21213;SDS011;10764;50.850;2.904;2024-02-04T06:48:31;1233.22;;;999.90;;
21213;SDS011;10764;50.850;2.904;2024-02-04T06:50:58;1231.22;;;999.90;;
21213;SDS011;10764;50.850;2.904;2024-02-04T06:53:26;1232.05;;;999.90;;
21213;SDS011;10764;50.850;2.904;2024-02-04T06:55:53;1227.82;;;999.90;;
21213;SDS011;10764;50.850;2.904;2024-02-04T06:58:20;1229.43;;;999.90;;
21213;SDS011;10764;50.850;2.904;2024-02-04T07:00:48;1227.90;;;999.90;;
21213;SDS011;10764;50.850;2.904;2024-02-04T07:03:15;1229.82;;;999.90;;
21213;SDS011;10764;50.850;2.904;2024-02-04T07:05:43;1232.43;;;999.90;;
21213;SDS011;10764;50.850;2.904;2024-02-04T07:08:13;1231.63;;;999.90;;
21213;SDS011;10764;50.850;2.904;2024-02-04T07:10:41;1233.68;;;999.90;;
21213;SDS011;10764;50.850;2.904;2024-02-04T07:13:08;1232.50;;;999.90;;
21213;SDS011;10764;50.850;2.904;2024-02-04T07:15:38;1231.80;;;999.90;;
21213;SDS011;10764;50.850;2.904;2024-02-04T07:18:05;1231.25;;;999.90;;
21213;SDS011;10764;50.850;2.904;2024-02-04T07:20:33;1232.25;;;999.90;;
21213;SDS011;10764;50.850;2.904;2024-02-04T07:23:00;1232.93;;;999.90;;
21213;SDS011;10764;50.850;2.904;2024-02-04T07:25:28;1232.13;;;999.90;;
21213;SDS011;10764;50.850;2.904;2024-02-04T07:27:55;1233.28;;;999.90;;
21213;SDS011;10764;50.850;2.904;2024-02-04T07:30:23;1234.50;;;999.90;;
21213;SDS011;10764;50.850;2.904;2024-02-04T07:32:51;1233.68;;;999.90;;
21213;SDS011;10764;50.850;2.904;2024-02-04T07:35:18;1232.22;;;999.90;;
21213;SDS011;10764;50.850;2.904;2024-02-04T07:37:45;1234.10;;;999.90;;
21213;SDS011;10764;50.850;2.904;2024-02-04T07:40:13;1232.73;;;999.90;;
21213;SDS011;10764;50.850;2.904;2024-02-04T07:42:40;1235.78;;;999.90;;
21213;SDS011;10764;50.850;2.904;2024-02-04T07:45:08;1236.10;;;999.90;;
21213;SDS011;10764;50.850;2.904;2024-02-04T07:47:36;1236.05;;;999.90;;
21213;SDS011;10764;50.850;2.904;2024-02-04T07:50:03;1237.43;;;999.90;;
21213;SDS011;10764;50.850;2.904;2024-02-04T07:52:31;1234.25;;;999.90;;
21213;SDS011;10764;50.850;2.904;2024-02-04T07:54:59;1237.20;;;999.90;;
21213;SDS011;10764;50.850;2.904;2024-02-04T07:57:26;1237.63;;;999.90;;
21213;SDS011;10764;50.850;2.904;2024-02-04T07:59:53;1236.60;;;999.90;;
21213;SDS011;10764;50.850;2.904;2024-02-04T08:02:21;1234.85;;;999.90;;
21213;SDS011;10764;50.850;2.904;2024-02-04T08:04:49;1235.75;;;999.90;;
21213;SDS011;10764;50.850;2.904;2024-02-04T08:07:16;1233.88;;;999.90;;
21213;SDS011;10764;50.850;2.904;2024-02-04T08:09:44;1234.37;;;999.90;;
21213;SDS011;10764;50.850;2.904;2024-02-04T08:12:12;1233.78;;;999.90;;
21213;SDS011;10764;50.850;2.904;2024-02-04T08:14:39;1235.70;;;999.90;;
21213;SDS011;10764;50.850;2.904;2024-02-04T08:17:06;1236.03;;;999.90;;
21213;SDS011;10764;50.850;2.904;2024-02-04T08:19:33;1234.88;;;999.90;;
21213;SDS011;10764;50.850;2.904;2024-02-04T08:22:01;1235.60;;;999.90;;
21213;SDS011;10764;50.850;2.904;2024-02-04T08:24:29;1239.35;;;999.90;;
21213;SDS011;10764;50.850;2.904;2024-02-04T08:26:58;1240.30;;;999.90;;
21213;SDS011;10764;50.850;2.904;2024-02-04T08:29:26;1243.88;;;999.90;;
21213;SDS011;10764;50.850;2.904;2024-02-04T08:31:53;1248.35;;;999.90;;
21213;SDS011;10764;50.850;2.904;2024-02-04T08:34:20;1247.15;;;999.90;;
21213;SDS011;10764;50.850;2.904;2024-02-04T08:36:50;1256.45;;;999.90;;
21213;SDS011;10764;50.850;2.904;2024-02-04T08:39:18;1249.25;;;999.90;;
21213;SDS011;10764;50.850;2.904;2024-02-04T08:41:45;1247.70;;;999.90;;
21213;SDS011;10764;50.850;2.904;2024-02-04T08:44:12;1257.65;;;999.90;;
21213;SDS011;10764;50.850;2.904;2024-02-04T08:46:57;1245.30;;;999.90;;
21213;SDS011;10764;50.850;2.904;2024-02-04T08:49:24;1248.57;;;999.90;;
21213;SDS011;10764;50.850;2.904;2024-02-04T08:51:52;1246.57;;;999.90;;
21213;SDS011;10764;50.850;2.904;2024-02-04T08:54:20;1241.30;;;999.90;;
21213;SDS011;10764;50.850;2.904;2024-02-04T08:56:47;1242.80;;;999.90;;
21213;SDS011;10764;50.850;2.904;2024-02-04T08:59:14;1244.90;;;999.90;;
21213;SDS011;10764;50.850;2.904;2024-02-04T09:01:42;1243.03;;;999.90;;
21213;SDS011;10764;50.850;2.904;2024-02-04T09:04:09;1245.78;;;999.90;;
21213;SDS011;10764;50.850;2.904;2024-02-04T09:06:36;1242.65;;;999.90;;
21213;SDS011;10764;50.850;2.904;2024-02-04T09:09:04;1248.45;;;999.90;;
21213;SDS011;10764;50.850;2.904;2024-02-04T09:11:31;1247.60;;;999.90;;
21213;SDS011;10764;50.850;2.904;2024-02-04T09:13:58;1241.95;;;999.90;;
21213;SDS011;10764;50.850;2.904;2024-02-04T09:16:26;1242.65;;;999.90;;
21213;SDS011;10764;50.850;2.904;2024-02-04T09:18:53;1246.72;;;999.90;;
21213;SDS011;10764;50.850;2.904;2024-02-04T09:21:21;1244.50;;;999.90;;
21213;SDS011;10764;50.850;2.904;2024-02-04T09:23:49;1244.68;;;999.90;;
21213;SDS011;10764;50.850;2.904;2024-02-04T09:26:16;1240.72;;;999.90;;
21213;SDS011;10764;50.850;2.904;2024-02-04T09:28:45;1246.38;;;999.90;;
21213;SDS011;10764;50.850;2.904;2024-02-04T09:31:12;1245.53;;;999.90;;
21213;SDS011;10764;50.850;2.904;2024-02-04T09:33:40;1241.13;;;999.90;;
21213;SDS011;10764;50.850;2.904;2024-02-04T09:36:08;1241.28;;;999.90;;
21213;SDS011;10764;50.850;2.904;2024-02-04T09:38:35;1244.28;;;999.90;;
21213;SDS011;10764;50.850;2.904;2024-02-04T09:41:03;1244.05;;;999.90;;
21213;SDS011;10764;50.850;2.904;2024-02-04T09:43:32;1243.03;;;999.90;;
21213;SDS011;10764;50.850;2.904;2024-02-04T09:46:00;1248.07;;;999.90;;
21213;SDS011;10764;50.850;2.904;2024-02-04T09:48:31;1245.80;;;999.90;;
21213;SDS011;10764;50.850;2.904;2024-02-04T09:51:00;1246.10;;;999.90;;
21213;SDS011;10764;50.850;2.904;2024-02-04T09:53:31;1244.05;;;999.90;;
21213;SDS011;10764;50.850;2.904;2024-02-04T09:56:02;1246.03;;;999.90;;
21213;SDS011;10764;50.850;2.904;2024-02-04T09:58:30;1245.82;;;999.90;;
21213;SDS011;10764;50.850;2.904;2024-02-04T10:00:58;1249.00;;;999.90;;
21213;SDS011;10764;50.850;2.904;2024-02-04T10:03:27;1244.82;;;999.90;;
21213;SDS011;10764;50.850;2.904;2024-02-04T10:05:55;1241.40;;;999.90;;
21213;SDS011;10764;50.850;2.904;2024-02-04T10:08:22;1247.35;;;999.90;;
21213;SDS011;10764;50.850;2.904;2024-02-04T10:10:50;1243.10;;;999.90;;
21213;SDS011;10764;50.850;2.904;2024-02-04T10:13:18;1244.93;;;999.90;;
21213;SDS011;10764;50.850;2.904;2024-02-04T10:15:45;1245.57;;;999.90;;
21213;SDS011;10764;50.850;2.904;2024-02-04T10:18:13;1243.22;;;999.90;;
21213;SDS011;10764;50.850;2.904;2024-02-04T10:20:40;1241.95;;;999.90;;
21213;SDS011;10764;50.850;2.904;2024-02-04T10:23:09;1241.05;;;999.90;;
21213;SDS011;10764;50.850;2.904;2024-02-04T10:25:37;1240.95;;;999.90;;
21213;SDS011;10764;50.850;2.904;2024-02-04T10:28:04;1238.50;;;999.90;;
21213;SDS011;10764;50.850;2.904;2024-02-04T10:30:31;1236.57;;;999.90;;
21213;SDS011;10764;50.850;2.904;2024-02-04T10:32:59;1239.55;;;999.90;;
21213;SDS011;10764;50.850;2.904;2024-02-04T10:35:26;1237.20;;;999.90;;
21213;SDS011;10764;50.850;2.904;2024-02-04T10:37:54;1237.22;;;999.90;;
21213;SDS011;10764;50.850;2.904;2024-02-04T10:40:21;1236.65;;;999.90;;
21213;SDS011;10764;50.850;2.904;2024-02-04T10:42:49;1237.07;;;999.90;;
21213;SDS011;10764;50.850;2.904;2024-02-04T10:45:18;1238.32;;;999.90;;
21213;SDS011;10764;50.850;2.904;2024-02-04T10:47:50;1236.65;;;999.90;;
21213;SDS011;10764;50.850;2.904;2024-02-04T10:50:19;1237.30;;;999.90;;
21213;SDS011;10764;50.850;2.904;2024-02-04T10:52:47;1236.45;;;999.90;;
21213;SDS011;10764;50.850;2.904;2024-02-04T10:55:16;1234.88;;;999.90;;
21213;SDS011;10764;50.850;2.904;2024-02-04T10:57:44;1233.95;;;999.90;;
21213;SDS011;10764;50.850;2.904;2024-02-04T11:00:12;1235.18;;;999.90;;
21213;SDS011;10764;50.850;2.904;2024-02-04T11:02:40;1234.18;;;999.90;;
21213;SDS011;10764;50.850;2.904;2024-02-04T11:05:12;1236.97;;;999.90;;
21213;SDS011;10764;50.850;2.904;2024-02-04T11:07:40;1232.77;;;999.90;;
21213;SDS011;10764;50.850;2.904;2024-02-04T11:10:10;1234.47;;;999.90;;
21213;SDS011;10764;50.850;2.904;2024-02-04T11:12:38;1234.80;;;999.90;;
21213;SDS011;10764;50.850;2.904;2024-02-04T11:15:08;1234.88;;;999.90;;
21213;SDS011;10764;50.850;2.904;2024-02-04T11:25:45;1238.93;;;999.90;;
21213;SDS011;10764;50.850;2.904;2024-02-04T11:28:18;1236.53;;;999.90;;
21213;SDS011;10764;50.850;2.904;2024-02-04T11:30:46;1235.47;;;999.90;;
21213;SDS011;10764;50.850;2.904;2024-02-04T11:33:17;1234.60;;;999.90;;
21213;SDS011;10764;50.850;2.904;2024-02-04T11:35:45;1233.55;;;999.90;;
21213;SDS011;10764;50.850;2.904;2024-02-04T11:38:17;1236.15;;;999.90;;
21213;SDS011;10764;50.850;2.904;2024-02-04T11:40:45;1234.57;;;999.90;;
21213;SDS011;10764;50.850;2.904;2024-02-04T11:43:13;1235.05;;;999.90;;
21213;SDS011;10764;50.850;2.904;2024-02-04T11:45:42;1235.82;;;999.90;;
21213;SDS011;10764;50.850;2.904;2024-02-04T11:48:10;1233.17;;;999.90;;
21213;SDS011;10764;50.850;2.904;2024-02-04T11:50:38;1232.07;;;999.90;;
21213;SDS011;10764;50.850;2.904;2024-02-04T11:53:10;1237.05;;;999.90;;
21213;SDS011;10764;50.850;2.904;2024-02-04T11:55:39;1230.93;;;999.90;;
21213;SDS011;10764;50.850;2.904;2024-02-04T11:58:11;1236.00;;;999.90;;
21213;SDS011;10764;50.850;2.904;2024-02-04T12:00:41;1229.97;;;999.90;;
21213;SDS011;10764;50.850;2.904;2024-02-04T12:03:10;1236.55;;;999.90;;
21213;SDS011;10764;50.850;2.904;2024-02-04T12:05:38;1229.47;;;999.90;;
21213;SDS011;10764;50.850;2.904;2024-02-04T12:08:06;1231.65;;;999.90;;
21213;SDS011;10764;50.850;2.904;2024-02-04T12:10:36;1233.55;;;999.90;;
21213;SDS011;10764;50.850;2.904;2024-02-04T12:13:05;1234.00;;;999.90;;
21213;SDS011;10764;50.850;2.904;2024-02-04T12:15:36;1233.82;;;999.90;;
21213;SDS011;10764;50.850;2.904;2024-02-04T12:18:09;1232.68;;;999.90;;
21213;SDS011;10764;50.850;2.904;2024-02-04T12:20:37;1232.35;;;999.90;;
21213;SDS011;10764;50.850;2.904;2024-02-04T12:23:05;1234.95;;;999.90;;
21213;SDS011;10764;50.850;2.904;2024-02-04T12:25:33;1232.65;;;999.90;;
21213;SDS011;10764;50.850;2.904;2024-02-04T12:28:02;1233.03;;;999.90;;
21213;SDS011;10764;50.850;2.904;2024-02-04T12:30:30;1231.47;;;999.90;;
21213;SDS011;10764;50.850;2.904;2024-02-04T12:32:58;1237.00;;;999.90;;
21213;SDS011;10764;50.850;2.904;2024-02-04T12:35:26;1233.72;;;999.90;;
21213;SDS011;10764;50.850;2.904;2024-02-04T12:37:54;1232.22;;;999.90;;
21213;SDS011;10764;50.850;2.904;2024-02-04T12:40:23;1231.65;;;999.90;;
21213;SDS011;10764;50.850;2.904;2024-02-04T12:45:24;1236.38;;;999.90;;
21213;SDS011;10764;50.850;2.904;2024-02-04T12:47:57;1233.13;;;999.90;;
21213;SDS011;10764;50.850;2.904;2024-02-04T12:50:25;1231.97;;;999.90;;
21213;SDS011;10764;50.850;2.904;2024-02-04T12:53:04;1234.55;;;999.90;;
21213;SDS011;10764;50.850;2.904;2024-02-04T12:55:32;1230.40;;;999.90;;
21213;SDS011;10764;50.850;2.904;2024-02-04T12:58:12;1240.10;;;999.90;;
21213;SDS011;10764;50.850;2.904;2024-02-04T13:00:44;1233.10;;;999.90;;
21213;SDS011;10764;50.850;2.904;2024-02-04T13:03:14;1237.85;;;999.90;;
21213;SDS011;10764;50.850;2.904;2024-02-04T13:05:43;1237.40;;;999.90;;
21213;SDS011;10764;50.850;2.904;2024-02-04T13:08:12;1238.55;;;999.90;;
21213;SDS011;10764;50.850;2.904;2024-02-04T13:10:39;1238.22;;;999.90;;
21213;SDS011;10764;50.850;2.904;2024-02-04T13:13:09;1238.95;;;999.90;;
21213;SDS011;10764;50.850;2.904;2024-02-04T13:15:38;1238.77;;;999.90;;
21213;SDS011;10764;50.850;2.904;2024-02-04T13:18:07;1239.38;;;999.90;;
21213;SDS011;10764;50.850;2.904;2024-02-04T13:20:35;1238.85;;;999.90;;
21213;SDS011;10764;50.850;2.904;2024-02-04T13:23:02;1238.95;;;999.90;;
21213;SDS011;10764;50.850;2.904;2024-02-04T13:25:32;1240.33;;;999.90;;
21213;SDS011;10764;50.850;2.904;2024-02-04T13:28:00;1240.57;;;999.90;;
21213;SDS011;10764;50.850;2.904;2024-02-04T13:30:28;1239.72;;;999.90;;
21213;SDS011;10764;50.850;2.904;2024-02-04T13:32:55;1238.85;;;999.90;;
21213;SDS011;10764;50.850;2.904;2024-02-04T13:35:28;1242.53;;;999.90;;
21213;SDS011;10764;50.850;2.904;2024-02-04T13:37:57;1244.03;;;999.90;;
21213;SDS011;10764;50.850;2.904;2024-02-04T13:40:24;1241.07;;;999.90;;
21213;SDS011;10764;50.850;2.904;2024-02-04T13:42:52;1243.10;;;999.90;;
21213;SDS011;10764;50.850;2.904;2024-02-04T13:45:19;1246.05;;;999.90;;
21213;SDS011;10764;50.850;2.904;2024-02-04T13:47:47;1240.95;;;999.90;;
21213;SDS011;10764;50.850;2.904;2024-02-04T13:50:15;1242.55;;;999.90;;
21213;SDS011;10764;50.850;2.904;2024-02-04T13:52:42;1239.15;;;999.90;;
21213;SDS011;10764;50.850;2.904;2024-02-04T13:55:10;1242.95;;;999.90;;
21213;SDS011;10764;50.850;2.904;2024-02-04T13:57:37;1243.28;;;999.90;;
21213;SDS011;10764;50.850;2.904;2024-02-04T14:00:05;1242.55;;;999.90;;
21213;SDS011;10764;50.850;2.904;2024-02-04T14:02:33;1255.18;;;999.90;;
21213;SDS011;10764;50.850;2.904;2024-02-04T14:05:01;1240.70;;;999.90;;